Valier, IL (62891)

7:43 AM CDT on June 30, 2015 (GMT -0500)
Buckner Illinois | | Change Station
CLOSE
Current Station
Personal Weather Station
Location: Buckner, IL
Elevation: 410 ft
Nearby Weather Stations

Elev 410 ft 37.98 °N, 89.02 °W | Updated 9 seconds ago

Clear
Clear
69.6 °F
Feels Like 69.6 °F
N
0.0
Wind Variable Wind from ENE
Gusts 0.0 mph

Today
High -- | Low -- °F
--% Chance of Precip.
Yesterday
High -- | Low -- °F
Precip. -- in
5:36 AM 8:22 PM
Waxing Gibbous, 97% visible
Pressure 29.89 in
Visibility 7.0 miles
Clouds Clear
Dew Point 68 °F
Humidity 94%
Rainfall 0.00 in
Snow Depth Not available.
UV 0 out of 12
Pollen 4.50 out of 12
Air Quality Not available.
Flu Activity Sporadic
METAR KMWA 301115Z AUTO 00000KT 7SM CLR 20/19 A2989 RMK AO2

More Conditions Fewer Conditions

Pressure 29.89 in
Visibility 7.0 miles
Clouds Clear
Dew Point 68 °F
Humidity 94%
Rainfall 0.00 in
Snow Depth Not available.
UV 0 out of 12
Pollen 4.50 out of 12
Air Quality Not available.
Flu Activity Sporadic
METAR KMWA 301115Z AUTO 00000KT 7SM CLR 20/19 A2989 RMK AO2

More Conditions Fewer Conditions

10-Day Weather Forecast

×

Almanac

Astronomy

Jun. 30, 2015 Rise Set
Actual Time
Civil Twilight
Nautical Twilight
Astronomical Twilight
Moon
Length of Visible Light
Length of Day
Tomorrow will be .
, % of the Moon is Illuminated

Today's Extremes

State Highs State Lows

Community

WunderPhotos

Upload Photos

1,833,986 photos uploaded!

WunderBlogs® & News

Nearby

Air Quality

  Air Quality AQ Index Pollutant
Not available.

Snow Depth

Station Depth Elevation

Earthquake Activity

City Distance Mag. Time & Date
Minimum magnitude displayed is 2.5.

Coastal Water Temperatures

Place Temperature

Stations

Nearby Weather Stations

Station Location Temp. Windchill Dew Point Humidity Wind Precip. Elev Updated Type